sensor_id;sensor_type;location;lat;lon;timestamp;P1;durP1;ratioP1;P2;durP2;ratioP2
26080;SDS011;13991;51.174;4.438;2023-07-20T00:02:00;20.50;;;3.47;;
26080;SDS011;13991;51.174;4.438;2023-07-20T00:04:25;20.70;;;3.67;;
26080;SDS011;13991;51.174;4.438;2023-07-20T00:06:51;14.57;;;3.13;;
26080;SDS011;13991;51.174;4.438;2023-07-20T00:09:16;13.53;;;3.73;;
26080;SDS011;13991;51.174;4.438;2023-07-20T00:11:48;11.97;;;3.37;;
26080;SDS011;13991;51.174;4.438;2023-07-20T00:14:18;21.53;;;3.77;;
26080;SDS011;13991;51.174;4.438;2023-07-20T00:16:44;30.17;;;3.87;;
26080;SDS011;13991;51.174;4.438;2023-07-20T00:19:11;21.53;;;3.67;;
26080;SDS011;13991;51.174;4.438;2023-07-20T00:21:37;20.30;;;3.63;;
26080;SDS011;13991;51.174;4.438;2023-07-20T00:24:05;14.07;;;3.63;;
26080;SDS011;13991;51.174;4.438;2023-07-20T00:26:31;14.90;;;3.00;;
26080;SDS011;13991;51.174;4.438;2023-07-20T00:28:57;15.93;;;3.17;;
26080;SDS011;13991;51.174;4.438;2023-07-20T00:31:22;11.30;;;3.00;;
26080;SDS011;13991;51.174;4.438;2023-07-20T00:33:48;15.13;;;3.07;;
26080;SDS011;13991;51.174;4.438;2023-07-20T00:36:13;17.47;;;2.93;;
26080;SDS011;13991;51.174;4.438;2023-07-20T00:38:39;21.53;;;3.23;;
26080;SDS011;13991;51.174;4.438;2023-07-20T00:41:06;17.67;;;3.23;;
26080;SDS011;13991;51.174;4.438;2023-07-20T00:43:32;9.80;;;2.63;;
26080;SDS011;13991;51.174;4.438;2023-07-20T00:45:57;12.67;;;3.40;;
26080;SDS011;13991;51.174;4.438;2023-07-20T00:48:23;20.37;;;3.90;;
26080;SDS011;13991;51.174;4.438;2023-07-20T00:50:49;11.77;;;2.80;;
26080;SDS011;13991;51.174;4.438;2023-07-20T00:53:16;18.67;;;3.00;;
26080;SDS011;13991;51.174;4.438;2023-07-20T00:55:42;18.37;;;3.47;;
26080;SDS011;13991;51.174;4.438;2023-07-20T00:58:07;8.87;;;2.73;;
26080;SDS011;13991;51.174;4.438;2023-07-20T01:00:34;16.60;;;2.97;;
26080;SDS011;13991;51.174;4.438;2023-07-20T01:02:59;15.00;;;3.23;;
26080;SDS011;13991;51.174;4.438;2023-07-20T01:05:27;15.20;;;3.27;;
26080;SDS011;13991;51.174;4.438;2023-07-20T01:08:15;20.13;;;3.83;;
26080;SDS011;13991;51.174;4.438;2023-07-20T01:10:59;15.30;;;2.73;;
26080;SDS011;13991;51.174;4.438;2023-07-20T01:13:41;13.57;;;3.07;;
26080;SDS011;13991;51.174;4.438;2023-07-20T01:16:09;17.83;;;4.30;;
26080;SDS011;13991;51.174;4.438;2023-07-20T01:18:34;9.80;;;3.20;;
26080;SDS011;13991;51.174;4.438;2023-07-20T01:21:03;10.03;;;3.20;;
26080;SDS011;13991;51.174;4.438;2023-07-20T01:31:58;13.67;;;2.93;;
26080;SDS011;13991;51.174;4.438;2023-07-20T01:34:28;12.77;;;3.50;;
26080;SDS011;13991;51.174;4.438;2023-07-20T01:36:54;13.20;;;3.90;;
26080;SDS011;13991;51.174;4.438;2023-07-20T01:39:21;16.77;;;4.10;;
26080;SDS011;13991;51.174;4.438;2023-07-20T01:41:48;16.23;;;3.83;;
26080;SDS011;13991;51.174;4.438;2023-07-20T01:44:14;12.90;;;3.53;;
26080;SDS011;13991;51.174;4.438;2023-07-20T01:46:39;23.37;;;4.50;;
26080;SDS011;13991;51.174;4.438;2023-07-20T01:49:05;17.90;;;4.93;;
26080;SDS011;13991;51.174;4.438;2023-07-20T01:51:31;15.57;;;4.27;;
26080;SDS011;13991;51.174;4.438;2023-07-20T01:53:57;16.60;;;3.90;;
26080;SDS011;13991;51.174;4.438;2023-07-20T01:56:22;12.63;;;4.30;;
26080;SDS011;13991;51.174;4.438;2023-07-20T01:58:48;14.67;;;4.70;;
26080;SDS011;13991;51.174;4.438;2023-07-20T02:01:14;12.07;;;4.13;;
26080;SDS011;13991;51.174;4.438;2023-07-20T02:03:40;17.63;;;4.77;;
26080;SDS011;13991;51.174;4.438;2023-07-20T02:06:05;22.27;;;4.53;;
26080;SDS011;13991;51.174;4.438;2023-07-20T02:08:31;13.93;;;4.37;;
26080;SDS011;13991;51.174;4.438;2023-07-20T02:10:56;13.63;;;4.53;;
26080;SDS011;13991;51.174;4.438;2023-07-20T02:13:22;13.57;;;5.53;;
26080;SDS011;13991;51.174;4.438;2023-07-20T02:15:48;17.90;;;4.57;;
26080;SDS011;13991;51.174;4.438;2023-07-20T02:18:14;17.13;;;4.40;;
26080;SDS011;13991;51.174;4.438;2023-07-20T02:20:40;19.03;;;4.77;;
26080;SDS011;13991;51.174;4.438;2023-07-20T02:23:07;17.60;;;5.00;;
26080;SDS011;13991;51.174;4.438;2023-07-20T02:25:32;14.07;;;5.30;;
26080;SDS011;13991;51.174;4.438;2023-07-20T02:27:58;16.17;;;5.10;;
26080;SDS011;13991;51.174;4.438;2023-07-20T02:30:24;14.37;;;4.90;;
26080;SDS011;13991;51.174;4.438;2023-07-20T02:32:50;16.50;;;5.67;;
26080;SDS011;13991;51.174;4.438;2023-07-20T02:35:15;20.83;;;5.27;;
26080;SDS011;13991;51.174;4.438;2023-07-20T02:37:41;16.73;;;4.80;;
26080;SDS011;13991;51.174;4.438;2023-07-20T02:40:07;16.27;;;4.80;;
26080;SDS011;13991;51.174;4.438;2023-07-20T02:42:34;13.63;;;5.23;;
26080;SDS011;13991;51.174;4.438;2023-07-20T02:45:00;22.67;;;5.73;;
26080;SDS011;13991;51.174;4.438;2023-07-20T02:47:26;18.73;;;4.93;;
26080;SDS011;13991;51.174;4.438;2023-07-20T02:49:52;14.10;;;4.87;;
26080;SDS011;13991;51.174;4.438;2023-07-20T02:52:17;9.97;;;5.47;;
26080;SDS011;13991;51.174;4.438;2023-07-20T02:54:43;17.17;;;5.77;;
26080;SDS011;13991;51.174;4.438;2023-07-20T02:57:09;16.27;;;5.97;;
26080;SDS011;13991;51.174;4.438;2023-07-20T02:59:35;15.07;;;5.40;;
26080;SDS011;13991;51.174;4.438;2023-07-20T03:02:01;11.50;;;5.33;;
26080;SDS011;13991;51.174;4.438;2023-07-20T03:04:26;17.30;;;5.47;;
26080;SDS011;13991;51.174;4.438;2023-07-20T03:06:52;23.57;;;5.63;;
26080;SDS011;13991;51.174;4.438;2023-07-20T03:09:18;13.63;;;5.53;;
26080;SDS011;13991;51.174;4.438;2023-07-20T03:11:45;12.63;;;5.67;;
26080;SDS011;13991;51.174;4.438;2023-07-20T03:14:10;15.77;;;6.00;;
26080;SDS011;13991;51.174;4.438;2023-07-20T03:16:36;13.13;;;5.90;;
26080;SDS011;13991;51.174;4.438;2023-07-20T03:19:02;13.20;;;5.90;;
26080;SDS011;13991;51.174;4.438;2023-07-20T03:21:28;15.57;;;6.83;;
26080;SDS011;13991;51.174;4.438;2023-07-20T03:23:54;12.70;;;6.03;;
26080;SDS011;13991;51.174;4.438;2023-07-20T03:26:20;15.70;;;6.57;;
26080;SDS011;13991;51.174;4.438;2023-07-20T03:28:46;15.00;;;6.77;;
26080;SDS011;13991;51.174;4.438;2023-07-20T03:31:11;18.70;;;6.97;;
26080;SDS011;13991;51.174;4.438;2023-07-20T03:33:37;19.97;;;6.97;;
26080;SDS011;13991;51.174;4.438;2023-07-20T03:36:03;16.57;;;7.13;;
26080;SDS011;13991;51.174;4.438;2023-07-20T03:38:29;14.17;;;7.17;;
26080;SDS011;13991;51.174;4.438;2023-07-20T03:40:56;18.73;;;6.73;;
26080;SDS011;13991;51.174;4.438;2023-07-20T03:43:22;16.40;;;7.20;;
26080;SDS011;13991;51.174;4.438;2023-07-20T03:45:49;13.40;;;5.97;;
26080;SDS011;13991;51.174;4.438;2023-07-20T03:48:15;17.07;;;7.00;;
26080;SDS011;13991;51.174;4.438;2023-07-20T03:50:46;13.73;;;6.60;;
26080;SDS011;13991;51.174;4.438;2023-07-20T03:53:13;12.50;;;6.03;;
26080;SDS011;13991;51.174;4.438;2023-07-20T03:55:40;14.57;;;7.37;;
26080;SDS011;13991;51.174;4.438;2023-07-20T03:58:09;14.13;;;6.47;;
26080;SDS011;13991;51.174;4.438;2023-07-20T04:00:35;11.57;;;5.53;;
26080;SDS011;13991;51.174;4.438;2023-07-20T04:03:01;18.67;;;6.43;;
26080;SDS011;13991;51.174;4.438;2023-07-20T04:05:26;14.07;;;6.97;;
26080;SDS011;13991;51.174;4.438;2023-07-20T04:07:52;13.83;;;6.33;;
26080;SDS011;13991;51.174;4.438;2023-07-20T04:10:18;19.23;;;6.77;;
26080;SDS011;13991;51.174;4.438;2023-07-20T04:12:44;13.80;;;6.00;;
26080;SDS011;13991;51.174;4.438;2023-07-20T04:15:12;11.47;;;5.77;;
26080;SDS011;13991;51.174;4.438;2023-07-20T04:17:38;14.87;;;5.67;;
26080;SDS011;13991;51.174;4.438;2023-07-20T04:20:04;11.67;;;5.37;;
26080;SDS011;13991;51.174;4.438;2023-07-20T04:22:31;11.87;;;5.70;;
26080;SDS011;13991;51.174;4.438;2023-07-20T04:24:56;12.67;;;5.30;;
26080;SDS011;13991;51.174;4.438;2023-07-20T04:27:22;12.70;;;5.13;;
26080;SDS011;13991;51.174;4.438;2023-07-20T04:29:48;13.03;;;5.47;;
26080;SDS011;13991;51.174;4.438;2023-07-20T04:32:13;14.53;;;5.10;;
26080;SDS011;13991;51.174;4.438;2023-07-20T04:34:39;10.73;;;5.87;;
26080;SDS011;13991;51.174;4.438;2023-07-20T04:37:05;15.17;;;5.83;;
26080;SDS011;13991;51.174;4.438;2023-07-20T04:39:30;13.33;;;5.97;;
26080;SDS011;13991;51.174;4.438;2023-07-20T04:41:57;11.10;;;4.77;;
26080;SDS011;13991;51.174;4.438;2023-07-20T04:44:22;11.40;;;4.83;;
26080;SDS011;13991;51.174;4.438;2023-07-20T04:46:48;8.27;;;4.33;;
26080;SDS011;13991;51.174;4.438;2023-07-20T04:49:14;8.97;;;3.40;;
26080;SDS011;13991;51.174;4.438;2023-07-20T04:51:40;16.40;;;3.20;;
26080;SDS011;13991;51.174;4.438;2023-07-20T04:54:05;9.57;;;2.37;;
26080;SDS011;13991;51.174;4.438;2023-07-20T04:56:31;6.93;;;2.13;;
26080;SDS011;13991;51.174;4.438;2023-07-20T04:58:58;4.70;;;2.03;;
26080;SDS011;13991;51.174;4.438;2023-07-20T05:01:24;7.77;;;2.00;;
26080;SDS011;13991;51.174;4.438;2023-07-20T05:03:51;2.80;;;1.90;;
26080;SDS011;13991;51.174;4.438;2023-07-20T05:06:17;2.57;;;2.00;;
26080;SDS011;13991;51.174;4.438;2023-07-20T05:08:43;3.77;;;1.70;;
26080;SDS011;13991;51.174;4.438;2023-07-20T05:11:09;3.73;;;1.83;;
26080;SDS011;13991;51.174;4.438;2023-07-20T05:13:35;6.47;;;2.50;;
26080;SDS011;13991;51.174;4.438;2023-07-20T05:16:01;7.60;;;2.80;;
26080;SDS011;13991;51.174;4.438;2023-07-20T05:18:27;8.17;;;1.70;;
26080;SDS011;13991;51.174;4.438;2023-07-20T05:20:53;5.27;;;2.00;;
26080;SDS011;13991;51.174;4.438;2023-07-20T05:23:20;3.77;;;2.37;;
26080;SDS011;13991;51.174;4.438;2023-07-20T05:25:46;4.30;;;2.10;;
26080;SDS011;13991;51.174;4.438;2023-07-20T05:28:12;3.30;;;1.70;;
26080;SDS011;13991;51.174;4.438;2023-07-20T05:30:39;10.33;;;1.83;;
26080;SDS011;13991;51.174;4.438;2023-07-20T05:33:05;7.90;;;2.43;;
26080;SDS011;13991;51.174;4.438;2023-07-20T05:35:31;7.77;;;1.83;;
26080;SDS011;13991;51.174;4.438;2023-07-20T05:37:56;7.83;;;2.60;;
26080;SDS011;13991;51.174;4.438;2023-07-20T05:40:22;11.63;;;2.90;;
26080;SDS011;13991;51.174;4.438;2023-07-20T05:42:48;8.80;;;2.93;;
26080;SDS011;13991;51.174;4.438;2023-07-20T05:45:16;7.37;;;3.60;;
26080;SDS011;13991;51.174;4.438;2023-07-20T05:47:43;7.67;;;3.23;;
26080;SDS011;13991;51.174;4.438;2023-07-20T05:50:09;11.47;;;3.07;;
26080;SDS011;13991;51.174;4.438;2023-07-20T05:52:35;4.70;;;2.90;;
26080;SDS011;13991;51.174;4.438;2023-07-20T05:55:03;3.50;;;2.30;;
26080;SDS011;13991;51.174;4.438;2023-07-20T05:57:29;5.03;;;2.10;;
26080;SDS011;13991;51.174;4.438;2023-07-20T05:59:54;12.40;;;2.47;;
26080;SDS011;13991;51.174;4.438;2023-07-20T06:02:20;2.50;;;1.67;;
26080;SDS011;13991;51.174;4.438;2023-07-20T06:04:46;1.93;;;1.30;;
26080;SDS011;13991;51.174;4.438;2023-07-20T06:07:12;3.03;;;1.40;;
26080;SDS011;13991;51.174;4.438;2023-07-20T06:09:37;4.43;;;1.20;;
26080;SDS011;13991;51.174;4.438;2023-07-20T06:12:03;3.20;;;1.43;;
26080;SDS011;13991;51.174;4.438;2023-07-20T06:14:29;1.57;;;0.70;;
26080;SDS011;13991;51.174;4.438;2023-07-20T06:16:55;3.43;;;1.30;;
26080;SDS011;13991;51.174;4.438;2023-07-20T06:19:21;3.47;;;1.23;;
26080;SDS011;13991;51.174;4.438;2023-07-20T06:21:50;5.57;;;1.50;;
26080;SDS011;13991;51.174;4.438;2023-07-20T06:24:16;5.13;;;1.73;;
26080;SDS011;13991;51.174;4.438;2023-07-20T06:26:42;4.07;;;1.73;;
26080;SDS011;13991;51.174;4.438;2023-07-20T06:29:08;2.63;;;1.43;;
26080;SDS011;13991;51.174;4.438;2023-07-20T06:31:34;3.07;;;1.40;;
26080;SDS011;13991;51.174;4.438;2023-07-20T06:34:01;4.57;;;2.10;;
26080;SDS011;13991;51.174;4.438;2023-07-20T06:36:27;5.00;;;2.50;;
26080;SDS011;13991;51.174;4.438;2023-07-20T06:38:53;5.57;;;2.27;;
26080;SDS011;13991;51.174;4.438;2023-07-20T06:41:19;8.13;;;2.30;;
26080;SDS011;13991;51.174;4.438;2023-07-20T06:43:45;6.17;;;2.60;;
26080;SDS011;13991;51.174;4.438;2023-07-20T06:46:11;5.37;;;2.50;;
26080;SDS011;13991;51.174;4.438;2023-07-20T06:48:37;6.90;;;2.37;;
26080;SDS011;13991;51.174;4.438;2023-07-20T06:51:02;10.63;;;2.40;;
26080;SDS011;13991;51.174;4.438;2023-07-20T06:53:31;5.73;;;1.80;;
26080;SDS011;13991;51.174;4.438;2023-07-20T06:55:57;4.87;;;1.97;;
26080;SDS011;13991;51.174;4.438;2023-07-20T06:58:23;7.67;;;2.57;;
26080;SDS011;13991;51.174;4.438;2023-07-20T07:00:49;3.73;;;2.27;;
26080;SDS011;13991;51.174;4.438;2023-07-20T07:03:15;5.63;;;2.27;;
26080;SDS011;13991;51.174;4.438;2023-07-20T07:05:40;2.77;;;2.00;;
26080;SDS011;13991;51.174;4.438;2023-07-20T07:08:06;7.93;;;2.60;;
26080;SDS011;13991;51.174;4.438;2023-07-20T07:10:34;4.87;;;2.90;;
26080;SDS011;13991;51.174;4.438;2023-07-20T07:13:00;4.90;;;2.20;;
26080;SDS011;13991;51.174;4.438;2023-07-20T07:15:27;8.50;;;1.97;;
26080;SDS011;13991;51.174;4.438;2023-07-20T07:17:52;4.90;;;2.20;;
26080;SDS011;13991;51.174;4.438;2023-07-20T07:20:18;4.40;;;1.80;;
26080;SDS011;13991;51.174;4.438;2023-07-20T07:22:44;5.43;;;2.30;;
26080;SDS011;13991;51.174;4.438;2023-07-20T07:25:10;5.30;;;2.73;;
26080;SDS011;13991;51.174;4.438;2023-07-20T07:27:36;7.63;;;2.57;;
26080;SDS011;13991;51.174;4.438;2023-07-20T07:30:02;6.67;;;2.20;;
26080;SDS011;13991;51.174;4.438;2023-07-20T07:32:28;7.23;;;2.10;;
26080;SDS011;13991;51.174;4.438;2023-07-20T07:34:54;7.37;;;1.97;;
26080;SDS011;13991;51.174;4.438;2023-07-20T07:37:20;6.70;;;2.13;;
26080;SDS011;13991;51.174;4.438;2023-07-20T07:39:46;4.70;;;2.60;;
26080;SDS011;13991;51.174;4.438;2023-07-20T07:42:12;6.53;;;2.53;;
26080;SDS011;13991;51.174;4.438;2023-07-20T07:44:38;7.07;;;2.10;;
26080;SDS011;13991;51.174;4.438;2023-07-20T07:47:05;5.40;;;2.30;;
26080;SDS011;13991;51.174;4.438;2023-07-20T07:49:31;6.33;;;2.30;;
26080;SDS011;13991;51.174;4.438;2023-07-20T07:51:56;4.33;;;2.20;;
26080;SDS011;13991;51.174;4.438;2023-07-20T07:54:22;5.87;;;2.37;;
26080;SDS011;13991;51.174;4.438;2023-07-20T07:56:48;4.00;;;1.97;;
26080;SDS011;13991;51.174;4.438;2023-07-20T07:59:14;10.37;;;1.87;;
26080;SDS011;13991;51.174;4.438;2023-07-20T08:01:39;9.60;;;2.60;;
26080;SDS011;13991;51.174;4.438;2023-07-20T08:04:05;5.90;;;1.90;;
26080;SDS011;13991;51.174;4.438;2023-07-20T08:06:31;4.50;;;1.57;;
26080;SDS011;13991;51.174;4.438;2023-07-20T08:08:57;2.00;;;1.20;;
26080;SDS011;13991;51.174;4.438;2023-07-20T08:11:23;3.37;;;1.57;;
26080;SDS011;13991;51.174;4.438;2023-07-20T08:13:49;2.97;;;1.60;;
26080;SDS011;13991;51.174;4.438;2023-07-20T08:16:15;5.23;;;1.30;;
26080;SDS011;13991;51.174;4.438;2023-07-20T08:18:40;2.77;;;1.40;;
26080;SDS011;13991;51.174;4.438;2023-07-20T08:21:06;7.57;;;1.70;;
26080;SDS011;13991;51.174;4.438;2023-07-20T08:23:32;3.10;;;1.40;;
26080;SDS011;13991;51.174;4.438;2023-07-20T08:25:58;5.73;;;1.53;;
26080;SDS011;13991;51.174;4.438;2023-07-20T08:28:23;8.97;;;1.40;;
26080;SDS011;13991;51.174;4.438;2023-07-20T08:30:51;3.00;;;1.27;;
26080;SDS011;13991;51.174;4.438;2023-07-20T08:33:17;4.10;;;1.27;;
26080;SDS011;13991;51.174;4.438;2023-07-20T08:35:44;6.73;;;1.33;;
26080;SDS011;13991;51.174;4.438;2023-07-20T08:38:11;3.93;;;1.30;;
26080;SDS011;13991;51.174;4.438;2023-07-20T08:40:41;2.73;;;1.40;;
26080;SDS011;13991;51.174;4.438;2023-07-20T08:43:11;5.37;;;1.37;;
26080;SDS011;13991;51.174;4.438;2023-07-20T08:45:38;2.07;;;1.13;;
26080;SDS011;13991;51.174;4.438;2023-07-20T08:48:06;4.73;;;1.67;;
26080;SDS011;13991;51.174;4.438;2023-07-20T08:50:32;5.30;;;1.67;;
26080;SDS011;13991;51.174;4.438;2023-07-20T08:52:59;1.93;;;1.20;;
26080;SDS011;13991;51.174;4.438;2023-07-20T08:55:26;3.80;;;1.53;;
26080;SDS011;13991;51.174;4.438;2023-07-20T08:57:53;4.07;;;1.40;;
26080;SDS011;13991;51.174;4.438;2023-07-20T09:00:20;6.73;;;1.10;;
26080;SDS011;13991;51.174;4.438;2023-07-20T09:02:48;9.37;;;1.17;;
26080;SDS011;13991;51.174;4.438;2023-07-20T09:05:16;2.40;;;0.63;;
26080;SDS011;13991;51.174;4.438;2023-07-20T09:07:43;14.30;;;1.30;;
26080;SDS011;13991;51.174;4.438;2023-07-20T09:10:09;2.10;;;0.80;;
26080;SDS011;13991;51.174;4.438;2023-07-20T09:12:39;6.67;;;0.90;;
26080;SDS011;13991;51.174;4.438;2023-07-20T09:15:06;4.17;;;1.00;;
26080;SDS011;13991;51.174;4.438;2023-07-20T09:17:33;1.33;;;0.60;;
26080;SDS011;13991;51.174;4.438;2023-07-20T09:20:01;1.40;;;0.93;;
26080;SDS011;13991;51.174;4.438;2023-07-20T09:22:35;1.87;;;0.87;;
26080;SDS011;13991;51.174;4.438;2023-07-20T09:25:05;1.90;;;0.90;;
26080;SDS011;13991;51.174;4.438;2023-07-20T09:27:39;5.10;;;0.80;;
26080;SDS011;13991;51.174;4.438;2023-07-20T09:30:09;2.67;;;0.80;;
26080;SDS011;13991;51.174;4.438;2023-07-20T09:32:47;17.87;;;2.13;;
26080;SDS011;13991;51.174;4.438;2023-07-20T09:35:14;5.53;;;1.03;;
26080;SDS011;13991;51.174;4.438;2023-07-20T09:40:20;4.87;;;0.70;;
26080;SDS011;13991;51.174;4.438;2023-07-20T09:42:46;1.47;;;0.90;;
26080;SDS011;13991;51.174;4.438;2023-07-20T09:45:13;4.37;;;1.23;;
26080;SDS011;13991;51.174;4.438;2023-07-20T09:47:39;6.50;;;1.40;;
26080;SDS011;13991;51.174;4.438;2023-07-20T09:50:06;2.43;;;1.20;;
26080;SDS011;13991;51.174;4.438;2023-07-20T09:52:39;5.90;;;1.50;;
26080;SDS011;13991;51.174;4.438;2023-07-20T09:55:09;5.97;;;1.10;;
26080;SDS011;13991;51.174;4.438;2023-07-20T09:57:37;6.40;;;0.97;;
26080;SDS011;13991;51.174;4.438;2023-07-20T10:00:03;2.60;;;0.90;;
26080;SDS011;13991;51.174;4.438;2023-07-20T10:02:41;1.20;;;0.70;;
26080;SDS011;13991;51.174;4.438;2023-07-20T10:05:09;4.73;;;0.60;;
26080;SDS011;13991;51.174;4.438;2023-07-20T10:07:43;6.47;;;0.97;;
26080;SDS011;13991;51.174;4.438;2023-07-20T10:10:13;2.33;;;0.63;;
26080;SDS011;13991;51.174;4.438;2023-07-20T10:12:42;3.87;;;1.37;;
26080;SDS011;13991;51.174;4.438;2023-07-20T10:15:11;2.63;;;0.73;;
26080;SDS011;13991;51.174;4.438;2023-07-20T10:17:45;2.93;;;0.50;;
26080;SDS011;13991;51.174;4.438;2023-07-20T10:20:22;1.50;;;0.60;;
26080;SDS011;13991;51.174;4.438;2023-07-20T10:22:49;2.37;;;0.40;;
26080;SDS011;13991;51.174;4.438;2023-07-20T10:25:20;2.20;;;0.60;;
26080;SDS011;13991;51.174;4.438;2023-07-20T10:27:47;5.57;;;0.67;;
26080;SDS011;13991;51.174;4.438;2023-07-20T10:30:13;10.83;;;0.60;;
26080;SDS011;13991;51.174;4.438;2023-07-20T10:32:40;3.87;;;1.00;;
26080;SDS011;13991;51.174;4.438;2023-07-20T10:35:16;1.97;;;0.50;;
26080;SDS011;13991;51.174;4.438;2023-07-20T10:40:29;0.83;;;0.53;;
26080;SDS011;13991;51.174;4.438;2023-07-20T10:43:00;4.90;;;0.60;;
26080;SDS011;13991;51.174;4.438;2023-07-20T10:45:51;3.80;;;0.40;;
26080;SDS011;13991;51.174;4.438;2023-07-20T10:48:21;1.53;;;0.60;;
26080;SDS011;13991;51.174;4.438;2023-07-20T10:53:48;3.47;;;0.67;;
26080;SDS011;13991;51.174;4.438;2023-07-20T10:56:15;1.10;;;0.50;;
26080;SDS011;13991;51.174;4.438;2023-07-20T10:58:45;4.43;;;0.57;;
26080;SDS011;13991;51.174;4.438;2023-07-20T11:01:15;3.40;;;0.37;;
26080;SDS011;13991;51.174;4.438;2023-07-20T11:03:42;0.27;;;0.27;;
26080;SDS011;13991;51.174;4.438;2023-07-20T11:11:36;0.37;;;0.30;;
26080;SDS011;13991;51.174;4.438;2023-07-20T11:16:46;0.27;;;0.27;;
26080;SDS011;13991;51.174;4.438;2023-07-20T11:21:46;2.73;;;0.50;;
26080;SDS011;13991;51.174;4.438;2023-07-20T11:24:15;1.70;;;0.40;;
26080;SDS011;13991;51.174;4.438;2023-07-20T11:26:45;0.53;;;0.23;;
26080;SDS011;13991;51.174;4.438;2023-07-20T11:29:19;1.80;;;0.50;;
26080;SDS011;13991;51.174;4.438;2023-07-20T11:31:46;0.90;;;0.30;;
26080;SDS011;13991;51.174;4.438;2023-07-20T11:34:13;3.10;;;0.90;;
26080;SDS011;13991;51.174;4.438;2023-07-20T11:40:04;5.93;;;0.83;;
26080;SDS011;13991;51.174;4.438;2023-07-20T11:42:30;6.30;;;0.40;;
26080;SDS011;13991;51.174;4.438;2023-07-20T11:44:58;1.65;;;0.30;;
26080;SDS011;13991;51.174;4.438;2023-07-20T11:47:28;1.13;;;0.30;;
26080;SDS011;13991;51.174;4.438;2023-07-20T11:49:54;2.53;;;0.45;;
26080;SDS011;13991;51.174;4.438;2023-07-20T11:52:20;0.65;;;0.30;;
26080;SDS011;13991;51.174;4.438;2023-07-20T11:54:48;6.15;;;0.20;;
26080;SDS011;13991;51.174;4.438;2023-07-20T11:57:17;0.40;;;0.30;;
26080;SDS011;13991;51.174;4.438;2023-07-20T12:02:29;0.60;;;0.30;;
26080;SDS011;13991;51.174;4.438;2023-07-20T12:04:55;0.87;;;0.40;;
26080;SDS011;13991;51.174;4.438;2023-07-20T12:07:22;3.88;;;0.68;;
26080;SDS011;13991;51.174;4.438;2023-07-20T12:12:50;2.50;;;0.40;;
26080;SDS011;13991;51.174;4.438;2023-07-20T12:15:17;0.85;;;0.32;;
26080;SDS011;13991;51.174;4.438;2023-07-20T12:17:48;1.23;;;0.40;;
26080;SDS011;13991;51.174;4.438;2023-07-20T12:22:56;0.83;;;0.40;;
26080;SDS011;13991;51.174;4.438;2023-07-20T12:25:32;0.70;;;0.40;;
26080;SDS011;13991;51.174;4.438;2023-07-20T12:28:09;2.93;;;0.60;;
26080;SDS011;13991;51.174;4.438;2023-07-20T12:30:37;4.93;;;0.47;;
26080;SDS011;13991;51.174;4.438;2023-07-20T12:33:03;5.00;;;0.50;;
26080;SDS011;13991;51.174;4.438;2023-07-20T12:35:49;2.27;;;0.60;;
26080;SDS011;13991;51.174;4.438;2023-07-20T12:38:15;2.67;;;0.77;;
26080;SDS011;13991;51.174;4.438;2023-07-20T12:40:41;6.90;;;1.00;;
26080;SDS011;13991;51.174;4.438;2023-07-20T12:43:07;1.03;;;0.53;;
26080;SDS011;13991;51.174;4.438;2023-07-20T12:45:33;2.23;;;0.60;;
26080;SDS011;13991;51.174;4.438;2023-07-20T12:47:59;4.43;;;0.70;;
26080;SDS011;13991;51.174;4.438;2023-07-20T12:50:25;4.63;;;0.80;;
26080;SDS011;13991;51.174;4.438;2023-07-20T12:52:52;6.23;;;0.70;;
26080;SDS011;13991;51.174;4.438;2023-07-20T12:55:18;1.00;;;0.60;;
26080;SDS011;13991;51.174;4.438;2023-07-20T12:57:45;0.97;;;0.60;;
26080;SDS011;13991;51.174;4.438;2023-07-20T13:00:11;2.07;;;0.70;;
26080;SDS011;13991;51.174;4.438;2023-07-20T13:02:39;2.00;;;0.70;;
26080;SDS011;13991;51.174;4.438;2023-07-20T13:05:05;2.00;;;0.93;;
26080;SDS011;13991;51.174;4.438;2023-07-20T13:07:34;0.93;;;0.70;;
26080;SDS011;13991;51.174;4.438;2023-07-20T13:10:01;3.17;;;0.70;;
26080;SDS011;13991;51.174;4.438;2023-07-20T13:12:29;1.53;;;0.67;;
26080;SDS011;13991;51.174;4.438;2023-07-20T13:14:58;4.70;;;0.77;;
26080;SDS011;13991;51.174;4.438;2023-07-20T13:17:27;7.13;;;0.83;;
26080;SDS011;13991;51.174;4.438;2023-07-20T13:19:53;7.50;;;1.20;;
26080;SDS011;13991;51.174;4.438;2023-07-20T13:22:20;4.60;;;0.90;;
26080;SDS011;13991;51.174;4.438;2023-07-20T13:24:46;1.30;;;0.80;;
26080;SDS011;13991;51.174;4.438;2023-07-20T13:27:18;3.83;;;1.10;;
26080;SDS011;13991;51.174;4.438;2023-07-20T13:29:45;4.37;;;1.10;;
26080;SDS011;13991;51.174;4.438;2023-07-20T13:32:14;2.73;;;0.93;;
26080;SDS011;13991;51.174;4.438;2023-07-20T13:34:40;2.73;;;0.97;;
26080;SDS011;13991;51.174;4.438;2023-07-20T13:37:08;2.67;;;0.73;;
26080;SDS011;13991;51.174;4.438;2023-07-20T13:39:34;2.53;;;0.70;;
26080;SDS011;13991;51.174;4.438;2023-07-20T13:42:03;2.93;;;1.00;;
26080;SDS011;13991;51.174;4.438;2023-07-20T13:44:31;1.43;;;0.87;;
26080;SDS011;13991;51.174;4.438;2023-07-20T13:47:00;5.10;;;1.20;;
26080;SDS011;13991;51.174;4.438;2023-07-20T13:49:26;4.00;;;1.00;;
26080;SDS011;13991;51.174;4.438;2023-07-20T13:51:53;4.43;;;1.00;;
26080;SDS011;13991;51.174;4.438;2023-07-20T13:54:22;3.80;;;1.10;;
26080;SDS011;13991;51.174;4.438;2023-07-20T13:56:48;2.77;;;1.23;;
26080;SDS011;13991;51.174;4.438;2023-07-20T13:59:14;3.57;;;0.97;;
26080;SDS011;13991;51.174;4.438;2023-07-20T14:01:41;3.93;;;1.47;;
26080;SDS011;13991;51.174;4.438;2023-07-20T14:04:08;2.23;;;1.30;;
26080;SDS011;13991;51.174;4.438;2023-07-20T14:06:34;4.73;;;1.60;;
26080;SDS011;13991;51.174;4.438;2023-07-20T14:09:01;2.70;;;1.10;;
26080;SDS011;13991;51.174;4.438;2023-07-20T14:11:28;7.53;;;1.50;;
26080;SDS011;13991;51.174;4.438;2023-07-20T14:13:54;6.80;;;1.30;;
26080;SDS011;13991;51.174;4.438;2023-07-20T14:16:20;3.50;;;1.43;;
26080;SDS011;13991;51.174;4.438;2023-07-20T14:18:47;4.57;;;1.10;;
26080;SDS011;13991;51.174;4.438;2023-07-20T14:21:14;7.83;;;1.23;;
26080;SDS011;13991;51.174;4.438;2023-07-20T14:23:40;4.53;;;1.30;;
26080;SDS011;13991;51.174;4.438;2023-07-20T14:26:07;5.30;;;1.33;;
26080;SDS011;13991;51.174;4.438;2023-07-20T14:28:34;3.23;;;1.60;;
26080;SDS011;13991;51.174;4.438;2023-07-20T14:31:02;6.40;;;1.70;;
26080;SDS011;13991;51.174;4.438;2023-07-20T14:33:41;6.20;;;1.77;;
26080;SDS011;13991;51.174;4.438;2023-07-20T14:36:07;5.93;;;1.50;;
26080;SDS011;13991;51.174;4.438;2023-07-20T14:38:33;2.93;;;1.90;;
26080;SDS011;13991;51.174;4.438;2023-07-20T14:40:59;3.30;;;1.40;;
26080;SDS011;13991;51.174;4.438;2023-07-20T14:43:25;3.47;;;1.40;;
26080;SDS011;13991;51.174;4.438;2023-07-20T14:45:51;1.70;;;1.17;;
26080;SDS011;13991;51.174;4.438;2023-07-20T14:48:17;3.90;;;1.57;;
26080;SDS011;13991;51.174;4.438;2023-07-20T14:50:42;6.80;;;1.13;;
26080;SDS011;13991;51.174;4.438;2023-07-20T14:53:10;2.17;;;1.50;;
26080;SDS011;13991;51.174;4.438;2023-07-20T14:55:37;1.63;;;1.03;;
26080;SDS011;13991;51.174;4.438;2023-07-20T14:58:03;2.57;;;0.90;;
26080;SDS011;13991;51.174;4.438;2023-07-20T15:00:29;9.77;;;1.20;;
26080;SDS011;13991;51.174;4.438;2023-07-20T15:02:55;5.83;;;1.20;;
26080;SDS011;13991;51.174;4.438;2023-07-20T15:05:21;7.10;;;1.47;;
26080;SDS011;13991;51.174;4.438;2023-07-20T15:07:48;5.33;;;1.10;;
26080;SDS011;13991;51.174;4.438;2023-07-20T15:10:14;2.47;;;1.20;;
26080;SDS011;13991;51.174;4.438;2023-07-20T15:12:41;4.53;;;1.83;;
26080;SDS011;13991;51.174;4.438;2023-07-20T15:15:11;5.90;;;1.50;;
26080;SDS011;13991;51.174;4.438;2023-07-20T15:17:38;2.80;;;1.47;;
26080;SDS011;13991;51.174;4.438;2023-07-20T15:20:05;2.43;;;1.50;;
26080;SDS011;13991;51.174;4.438;2023-07-20T15:22:34;4.53;;;1.17;;